createdAt,value
2023-04-12T00:00:13.505Z,165.00
2023-04-12T00:01:03.598Z,165.07
2023-04-12T00:01:53.644Z,163.63
2023-04-12T00:02:43.778Z,168.32
2023-04-12T00:03:33.814Z,163.03
2023-04-12T00:04:24.170Z,160.08
2023-04-12T00:05:14.230Z,159.12
2023-04-12T00:06:04.076Z,158.56
2023-04-12T00:06:54.095Z,158.73
2023-04-12T00:07:44.169Z,160.12
2023-04-12T00:08:34.199Z,157.59
2023-04-12T00:09:24.277Z,159.53
2023-04-12T00:10:14.342Z,159.16
2023-04-12T00:11:04.432Z,159.41
2023-04-12T00:11:54.448Z,157.83
2023-04-12T00:12:44.528Z,153.57
2023-04-12T00:13:34.815Z,154.81
2023-04-12T00:14:24.903Z,157.31
2023-04-12T00:15:14.949Z,154.72
2023-04-12T00:16:05.326Z,153.27
2023-04-12T00:16:55.289Z,153.46
2023-04-12T00:17:45.390Z,152.74
2023-04-12T00:18:35.693Z,154.09
2023-04-12T00:19:25.763Z,152.72
2023-04-12T00:20:15.787Z,153.65
2023-04-12T00:21:05.895Z,154.13
2023-04-12T00:21:55.918Z,150.10
2023-04-12T00:22:46.005Z,152.04
2023-04-12T00:23:36.072Z,154.11
2023-04-12T00:24:26.149Z,154.42
2023-04-12T00:25:16.201Z,149.73
2023-04-12T00:26:06.306Z,151.67
2023-04-12T00:26:56.314Z,149.47
2023-04-12T00:27:46.659Z,150.71
2023-04-12T00:28:36.705Z,147.37
2023-04-12T00:29:26.832Z,151.04
2023-04-12T00:30:16.805Z,148.86
2023-04-12T00:31:06.917Z,153.19
2023-04-12T00:31:56.933Z,148.84
2023-04-12T00:32:47.035Z,146.85
2023-04-12T00:33:37.041Z,149.98
2023-04-12T00:34:27.108Z,150.65
2023-04-12T00:35:17.170Z,146.35
2023-04-12T00:36:07.352Z,148.65
2023-04-12T00:36:57.499Z,144.33
2023-04-12T00:37:47.565Z,147.33
2023-04-12T00:38:37.593Z,144.11
2023-04-12T00:39:27.635Z,145.25
2023-04-12T00:40:17.672Z,142.68
2023-04-12T00:41:07.728Z,143.99
2023-04-12T00:41:57.751Z,143.11
2023-04-12T00:42:47.828Z,144.95
2023-04-12T00:43:37.895Z,139.94
2023-04-12T00:44:27.974Z,145.32
2023-04-12T00:45:18.023Z,141.53
2023-04-12T00:46:08.093Z,139.75
2023-04-12T00:46:58.213Z,137.51
2023-04-12T00:47:48.173Z,140.75
2023-04-12T00:48:38.215Z,143.38
2023-04-12T00:49:28.296Z,137.93
2023-04-12T00:50:18.360Z,133.92
2023-04-12T00:51:08.462Z,136.50
2023-04-12T00:51:58.502Z,132.38
2023-04-12T00:52:48.788Z,138.34
2023-04-12T00:53:38.816Z,136.50
2023-04-12T00:54:28.881Z,135.80
2023-04-12T00:55:18.930Z,137.26
2023-04-12T00:56:09.016Z,139.28
2023-04-12T00:56:59.056Z,136.03
2023-04-12T00:57:49.135Z,135.98
2023-04-12T00:58:39.163Z,135.63
2023-04-12T00:59:29.209Z,140.30
2023-04-12T01:00:19.274Z,134.89
2023-04-12T01:01:09.407Z,132.41
2023-04-12T01:01:59.647Z,132.98
2023-04-12T01:02:49.839Z,137.93
2023-04-12T01:03:39.769Z,133.35
2023-04-12T01:04:30.049Z,133.36
2023-04-12T01:05:20.117Z,136.73
2023-04-12T01:06:10.211Z,134.23
2023-04-12T01:07:00.242Z,136.99
2023-04-12T01:07:50.328Z,133.53
2023-04-12T01:08:40.371Z,128.46
2023-04-12T01:09:30.487Z,130.27
2023-04-12T01:10:20.505Z,132.02
2023-04-12T01:11:10.561Z,131.44
2023-04-12T01:12:00.610Z,131.18
2023-04-12T01:12:50.675Z,128.80
2023-04-12T01:13:40.911Z,131.83
2023-04-12T01:14:30.981Z,132.98
2023-04-12T01:15:21.053Z,135.19
2023-04-12T01:16:11.426Z,127.39
2023-04-12T01:17:01.380Z,127.51
2023-04-12T01:17:51.496Z,131.95
2023-04-12T01:18:41.519Z,128.91
2023-04-12T01:19:31.589Z,127.78
2023-04-12T01:20:21.643Z,125.55
2023-04-12T01:21:11.741Z,129.26
2023-04-12T01:22:01.759Z,131.08
2023-04-12T01:22:51.832Z,129.84
2023-04-12T01:23:41.899Z,129.92
2023-04-12T01:24:31.980Z,124.75
2023-04-12T01:25:22.184Z,125.00
2023-04-12T01:26:12.324Z,125.86
2023-04-12T01:27:02.276Z,127.04
2023-04-12T01:27:52.351Z,128.48
2023-04-12T01:28:42.421Z,123.36
2023-04-12T01:29:32.490Z,122.95
2023-04-12T01:30:22.554Z,129.08
2023-04-12T01:31:12.691Z,125.04
2023-04-12T01:32:02.767Z,125.71
2023-04-12T01:32:52.897Z,133.74
2023-04-12T01:33:42.833Z,126.39
2023-04-12T01:34:33.146Z,126.02
2023-04-12T01:35:23.211Z,121.67
2023-04-12T01:36:13.318Z,130.62
2023-04-12T01:37:03.280Z,126.25
2023-04-12T01:37:53.357Z,125.14
2023-04-12T01:38:43.419Z,125.04
2023-04-12T01:39:33.499Z,125.26
2023-04-12T01:40:23.558Z,127.93
2023-04-12T01:41:13.648Z,125.53
2023-04-12T01:42:03.667Z,127.55
2023-04-12T01:42:53.753Z,128.51
2023-04-12T01:43:43.982Z,131.79
2023-04-12T01:44:34.064Z,124.22
2023-04-12T01:45:24.138Z,124.59
2023-04-12T01:46:14.316Z,127.32
2023-04-12T01:47:04.243Z,123.03
2023-04-12T01:47:54.365Z,123.65
2023-04-12T01:48:44.385Z,124.68
2023-04-12T01:49:34.445Z,123.92
2023-04-12T01:50:24.609Z,125.35
2023-04-12T01:51:14.699Z,125.71
2023-04-12T01:52:04.721Z,123.93
2023-04-12T01:52:54.788Z,123.08
2023-04-12T01:53:44.861Z,129.46
2023-04-12T01:54:34.916Z,125.34
2023-04-12T01:55:24.982Z,122.91
2023-04-12T01:56:15.072Z,119.72
2023-04-12T01:57:05.116Z,123.94
2023-04-12T01:57:55.146Z,126.49
2023-04-12T01:58:45.211Z,124.39
2023-04-12T01:59:35.498Z,124.47
2023-04-12T02:00:25.577Z,123.59
2023-04-12T02:01:15.970Z,125.01
2023-04-12T02:02:05.856Z,124.21
2023-04-12T02:02:55.854Z,123.53
2023-04-12T02:03:45.874Z,126.50
2023-04-12T02:04:35.890Z,125.28
2023-04-12T02:05:25.910Z,125.38
2023-04-12T02:06:16.144Z,126.31
2023-04-12T02:07:06.159Z,123.65
2023-04-12T02:07:56.235Z,123.78
2023-04-12T02:08:46.310Z,124.59
2023-04-12T02:09:36.377Z,121.71
2023-04-12T02:10:26.407Z,122.90
2023-04-12T02:11:16.525Z,123.13
2023-04-12T02:12:06.552Z,125.40
2023-04-12T02:12:56.585Z,121.14
2023-04-12T02:13:46.607Z,127.02
2023-04-12T02:14:36.683Z,120.40
2023-04-12T02:15:26.746Z,122.51
2023-04-12T02:16:16.908Z,120.87
2023-04-12T02:17:06.863Z,120.93
2023-04-12T02:17:56.925Z,123.80
2023-04-12T02:18:46.934Z,119.69
2023-04-12T02:19:37.074Z,121.92
2023-04-12T02:20:27.045Z,121.92
2023-04-12T02:21:17.135Z,119.90
2023-04-12T02:22:07.414Z,115.18
2023-04-12T02:22:57.500Z,122.05
2023-04-12T02:23:47.561Z,117.23
2023-04-12T02:24:37.894Z,118.65
2023-04-12T02:25:27.932Z,123.24
2023-04-12T02:26:18.012Z,120.49
2023-04-12T02:27:08.039Z,115.86
2023-04-12T02:27:58.118Z,119.43
2023-04-12T02:28:48.156Z,119.99
2023-04-12T02:29:38.260Z,116.73
2023-04-12T02:30:28.294Z,119.68
2023-04-12T02:31:18.415Z,119.44
2023-04-12T02:32:08.409Z,116.50
2023-04-12T02:32:58.587Z,119.89
2023-04-12T02:33:48.508Z,120.51
2023-04-12T02:34:38.604Z,118.14
2023-04-12T02:35:28.694Z,116.43
2023-04-12T02:36:18.714Z,118.19
2023-04-12T02:37:08.736Z,114.61
2023-04-12T02:37:58.822Z,115.62
2023-04-12T02:38:48.876Z,114.05
2023-04-12T02:39:38.949Z,114.36
2023-04-12T02:40:29.224Z,116.20
2023-04-12T02:41:19.328Z,114.08
2023-04-12T02:42:09.342Z,113.18
2023-04-12T02:42:59.420Z,118.38
2023-04-12T02:43:49.444Z,112.29
2023-04-12T02:44:39.515Z,114.08
2023-04-12T02:45:29.592Z,112.65
2023-04-12T02:46:19.710Z,116.28
2023-04-12T02:47:09.714Z,114.39
2023-04-12T02:47:59.833Z,112.97
2023-04-12T02:48:49.815Z,110.14
2023-04-12T02:49:39.895Z,115.23
2023-04-12T02:50:29.975Z,117.39
2023-04-12T02:51:20.047Z,116.46
2023-04-12T02:52:10.070Z,115.34
2023-04-12T02:53:00.139Z,114.19
2023-04-12T02:53:50.473Z,113.68
2023-04-12T02:54:40.537Z,114.85
2023-04-12T02:55:30.609Z,109.33
2023-04-12T02:56:21.029Z,113.82
2023-04-12T02:57:10.998Z,117.00
2023-04-12T02:58:01.121Z,108.65
2023-04-12T02:58:51.132Z,113.93
2023-04-12T02:59:41.223Z,113.33
2023-04-12T03:00:31.250Z,111.96
2023-04-12T03:01:21.365Z,113.12
2023-04-12T03:02:11.449Z,112.40
2023-04-12T03:03:01.567Z,113.04
2023-04-12T03:03:51.510Z,112.54
2023-04-12T03:04:41.533Z,113.71
2023-04-12T03:05:31.561Z,110.88
2023-04-12T03:06:21.715Z,112.05
2023-04-12T03:07:11.676Z,112.83
2023-04-12T03:08:01.762Z,115.19
2023-04-12T03:08:51.819Z,111.38
2023-04-12T03:09:41.912Z,109.61
2023-04-12T03:10:31.970Z,115.47
2023-04-12T03:11:22.064Z,112.02
2023-04-12T03:12:12.304Z,113.31
2023-04-12T03:13:02.374Z,110.64
2023-04-12T03:13:52.470Z,111.73
2023-04-12T03:14:42.555Z,106.96
2023-04-12T03:15:32.676Z,110.39
2023-04-12T03:16:22.698Z,110.14
2023-04-12T03:17:12.686Z,109.27
2023-04-12T03:18:02.777Z,106.66
2023-04-12T03:18:52.844Z,105.18
2023-04-12T03:19:42.924Z,109.43
2023-04-12T03:20:32.990Z,107.75
2023-04-12T03:21:23.078Z,108.78
2023-04-12T03:22:13.125Z,110.15
2023-04-12T03:23:03.191Z,107.66
2023-04-12T03:23:53.248Z,110.90
2023-04-12T03:24:43.268Z,108.19
2023-04-12T03:25:33.309Z,104.73
2023-04-12T03:26:23.388Z,109.18
2023-04-12T03:27:13.435Z,109.62
2023-04-12T03:28:03.754Z,114.15
2023-04-12T03:28:53.782Z,110.29
2023-04-12T03:29:43.858Z,105.20
2023-04-12T03:30:33.926Z,110.80
2023-04-12T03:31:24.127Z,108.01
2023-04-12T03:32:14.063Z,109.86
2023-04-12T03:33:04.151Z,112.97
2023-04-12T03:33:54.168Z,106.56
2023-04-12T03:34:44.236Z,108.24
2023-04-12T03:35:34.324Z,106.89
2023-04-12T03:36:24.390Z,106.63
2023-04-12T03:37:14.647Z,107.83
2023-04-12T03:38:04.749Z,109.45
2023-04-12T03:38:54.772Z,106.79
2023-04-12T03:39:45.119Z,106.23
2023-04-12T03:40:35.147Z,109.29
2023-04-12T03:41:25.219Z,111.61
2023-04-12T03:42:29.479Z,110.37
2023-04-12T03:43:06.307Z,110.07
2023-04-12T03:43:55.632Z,107.63
2023-04-12T03:44:45.447Z,106.46
2023-04-12T03:45:35.511Z,107.33
2023-04-12T03:46:25.605Z,110.60
2023-04-12T03:47:15.613Z,107.10
2023-04-12T03:48:05.740Z,109.04
2023-04-12T03:48:55.862Z,105.80
2023-04-12T03:49:51.715Z,112.04
2023-04-12T03:50:35.962Z,111.26
2023-04-12T03:51:26.054Z,112.08
2023-04-12T03:52:16.082Z,111.08
2023-04-12T03:53:06.160Z,114.69
2023-04-12T03:53:56.430Z,111.40
2023-04-12T03:54:46.243Z,107.80
2023-04-12T03:55:36.275Z,109.09
2023-04-12T03:56:26.338Z,109.62
2023-04-12T03:57:16.361Z,110.33
2023-04-12T03:58:06.446Z,107.96
2023-04-12T03:58:56.468Z,112.71
2023-04-12T03:59:46.569Z,105.90
2023-04-12T04:00:36.570Z,108.30
2023-04-12T04:01:26.668Z,105.99
2023-04-12T04:02:16.753Z,107.98
2023-04-12T04:03:06.795Z,111.59
2023-04-12T04:03:57.387Z,112.17
2023-04-12T04:04:46.884Z,103.76
2023-04-12T04:05:36.872Z,102.71
2023-04-12T04:06:26.974Z,105.35
2023-04-12T04:07:16.995Z,110.59
2023-04-12T04:08:07.108Z,102.80
2023-04-12T04:08:57.126Z,104.92
2023-04-12T04:09:47.201Z,108.23
2023-04-12T04:10:37.202Z,107.66
2023-04-12T04:11:27.314Z,109.56
2023-04-12T04:12:17.358Z,106.65
2023-04-12T04:13:07.428Z,106.93
2023-04-12T04:13:57.799Z,105.88
2023-04-12T04:14:47.552Z,100.73
2023-04-12T04:15:37.540Z,104.32
2023-04-12T04:16:27.678Z,99.23
2023-04-12T04:17:17.674Z,103.33
2023-04-12T04:18:07.748Z,100.65
2023-04-12T04:18:58.033Z,107.62
2023-04-12T04:19:48.113Z,108.34
2023-04-12T04:20:38.166Z,101.58
2023-04-12T04:21:28.281Z,97.77
2023-04-12T04:22:18.285Z,102.33
2023-04-12T04:23:08.365Z,94.31
2023-04-12T04:23:58.694Z,102.57
2023-04-12T04:24:48.468Z,98.85
2023-04-12T04:25:38.609Z,104.28
2023-04-12T04:26:28.684Z,101.68
2023-04-12T04:27:18.728Z,103.47
2023-04-12T04:28:08.784Z,103.08
2023-04-12T04:28:58.801Z,106.85
2023-04-12T04:29:48.876Z,104.81
2023-04-12T04:30:39.064Z,102.85
2023-04-12T04:31:29.055Z,98.80
2023-04-12T04:32:19.062Z,106.44
2023-04-12T04:33:09.194Z,104.10
2023-04-12T04:33:59.297Z,100.16
2023-04-12T04:34:49.541Z,100.37
2023-04-12T04:35:39.627Z,100.79
2023-04-12T04:36:29.684Z,100.70
2023-04-12T04:37:19.980Z,102.45
2023-04-12T04:38:10.048Z,106.09
2023-04-12T04:39:00.080Z,102.84
2023-04-12T04:39:50.427Z,104.35
2023-04-12T04:40:40.498Z,105.76
2023-04-12T04:41:30.534Z,102.18
2023-04-12T04:42:20.584Z,107.11
2023-04-12T04:43:10.616Z,102.95
2023-04-12T04:44:00.686Z,103.31
2023-04-12T04:44:50.771Z,105.95
2023-04-12T04:45:40.824Z,103.03
2023-04-12T04:46:30.907Z,104.32
2023-04-12T04:47:20.936Z,101.00
2023-04-12T04:48:11.020Z,103.57
2023-04-12T04:49:01.308Z,100.77
2023-04-12T04:49:51.360Z,103.77
2023-04-12T04:50:41.390Z,102.54
2023-04-12T04:51:31.489Z,102.25
2023-04-12T04:52:21.514Z,105.46
2023-04-12T04:53:11.544Z,104.30
2023-04-12T04:54:01.625Z,106.23
2023-04-12T04:54:51.710Z,100.77
2023-04-12T04:55:41.764Z,99.39
2023-04-12T04:56:31.891Z,98.28
2023-04-12T04:57:21.895Z,99.59
2023-04-12T04:58:12.186Z,107.03
2023-04-12T04:59:02.721Z,107.72
2023-04-12T04:59:52.313Z,109.38
2023-04-12T05:00:42.341Z,100.55
2023-04-12T05:01:32.433Z,107.93
2023-04-12T05:02:22.529Z,108.27
2023-04-12T05:03:12.662Z,104.83
2023-04-12T05:04:02.606Z,106.43
2023-04-12T05:04:52.688Z,110.50
2023-04-12T05:05:42.702Z,108.08
2023-04-12T05:06:32.797Z,107.01
2023-04-12T05:07:22.827Z,107.14
2023-04-12T05:08:12.917Z,104.01
2023-04-12T05:09:02.948Z,104.21
2023-04-12T05:09:52.992Z,101.87
2023-04-12T05:10:43.057Z,104.37
2023-04-12T05:11:33.157Z,100.73
2023-04-12T05:12:23.217Z,101.42
2023-04-12T05:13:13.237Z,107.25
2023-04-12T05:14:03.521Z,103.62
2023-04-12T05:15:01.337Z,106.95
2023-04-12T05:15:44.650Z,105.94
2023-04-12T05:16:33.828Z,105.90
2023-04-12T05:17:23.766Z,103.80
2023-04-12T05:18:13.794Z,106.51
2023-04-12T05:19:03.863Z,105.93
2023-04-12T05:19:53.947Z,103.61
2023-04-12T05:20:43.945Z,106.08
2023-04-12T05:21:34.262Z,102.49
2023-04-12T05:22:24.244Z,105.89
2023-04-12T05:23:14.291Z,113.32
2023-04-12T05:24:04.334Z,107.88
2023-04-12T05:24:54.366Z,112.39
2023-04-12T05:25:44.388Z,111.18
2023-04-12T05:26:34.492Z,108.82
2023-04-12T05:27:24.531Z,106.54
2023-04-12T05:28:14.590Z,107.23
2023-04-12T05:29:04.631Z,103.48
2023-04-12T05:29:54.705Z,110.99
2023-04-12T05:30:45.116Z,107.76
2023-04-12T05:31:35.119Z,108.84
2023-04-12T05:32:25.162Z,105.74
2023-04-12T05:33:15.226Z,108.29
2023-04-12T05:34:05.261Z,107.47
2023-04-12T05:34:55.340Z,108.67
2023-04-12T05:35:45.400Z,113.98
2023-04-12T05:36:35.488Z,113.04
2023-04-12T05:37:25.512Z,113.75
2023-04-12T05:38:15.565Z,109.10
2023-04-12T05:39:05.632Z,108.87
2023-04-12T05:39:55.964Z,111.17
2023-04-12T05:40:46.030Z,114.16
2023-04-12T05:41:36.130Z,109.78
2023-04-12T05:42:26.416Z,110.54
2023-04-12T05:43:16.493Z,107.84
2023-04-12T05:44:06.561Z,110.61
2023-04-12T05:44:56.853Z,110.56
2023-04-12T05:45:46.915Z,108.78
2023-04-12T05:46:37.052Z,106.80
2023-04-12T05:47:26.982Z,109.64
2023-04-12T05:48:17.023Z,109.75
2023-04-12T05:49:07.058Z,109.44
2023-04-12T05:49:57.133Z,109.44
2023-04-12T05:50:47.175Z,111.94
2023-04-12T05:51:41.366Z,110.94
2023-04-12T05:52:27.397Z,110.97
2023-04-12T05:53:17.476Z,106.76
2023-04-12T05:54:07.503Z,110.32
2023-04-12T05:54:57.840Z,108.18
2023-04-12T05:55:47.871Z,107.39
2023-04-12T05:56:37.965Z,111.09
2023-04-12T05:57:28.007Z,111.67
2023-04-12T05:58:18.036Z,112.32
2023-04-12T05:59:08.109Z,112.05
2023-04-12T05:59:58.255Z,113.69
2023-04-12T06:00:48.228Z,106.01
2023-04-12T06:01:38.404Z,108.94
2023-04-12T06:02:28.455Z,106.55
2023-04-12T06:03:18.569Z,106.28
2023-04-12T06:04:08.763Z,107.25
2023-04-12T06:04:58.941Z,105.38
2023-04-12T06:05:48.815Z,106.49
2023-04-12T06:06:38.919Z,107.23
2023-04-12T06:07:28.926Z,108.63
2023-04-12T06:08:18.998Z,103.59
2023-04-12T06:09:09.077Z,107.24
2023-04-12T06:09:59.125Z,104.59
2023-04-12T06:10:49.180Z,106.44
2023-04-12T06:11:39.411Z,108.35
2023-04-12T06:12:29.280Z,109.79
2023-04-12T06:13:19.360Z,107.82
2023-04-12T06:14:11.637Z,112.27
2023-04-12T06:14:59.464Z,111.69
2023-04-12T06:15:49.532Z,108.28
2023-04-12T06:16:41.813Z,107.07
2023-04-12T06:17:29.872Z,112.70
2023-04-12T06:18:19.863Z,110.27
2023-04-12T06:19:09.889Z,111.96
2023-04-12T06:19:59.966Z,112.32
2023-04-12T06:20:49.996Z,109.14
2023-04-12T06:21:40.096Z,110.62
2023-04-12T06:22:30.132Z,109.17
2023-04-12T06:23:20.209Z,110.80
2023-04-12T06:24:10.235Z,107.80
2023-04-12T06:25:00.321Z,106.42
2023-04-12T06:25:50.630Z,106.89
2023-04-12T06:26:40.682Z,110.44
2023-04-12T06:27:30.717Z,107.50
2023-04-12T06:28:20.805Z,109.99
2023-04-12T06:29:10.820Z,110.43
2023-04-12T06:30:00.867Z,114.70
2023-04-12T06:30:50.896Z,110.08
2023-04-12T06:31:41.240Z,107.29
2023-04-12T06:32:31.075Z,103.65
2023-04-12T06:33:21.060Z,103.88
2023-04-12T06:34:11.124Z,105.75
2023-04-12T06:35:01.211Z,109.21
2023-04-12T06:35:51.272Z,107.57
2023-04-12T06:36:41.293Z,107.15
2023-04-12T06:37:31.323Z,107.69
2023-04-12T06:38:21.390Z,103.64
2023-04-12T06:39:11.424Z,104.34
2023-04-12T06:40:01.508Z,104.38
2023-04-12T06:40:51.545Z,101.84
2023-04-12T06:41:41.659Z,104.35
2023-04-12T06:42:31.637Z,104.49
2023-04-12T06:43:21.715Z,107.17
2023-04-12T06:44:11.740Z,108.16
2023-04-12T06:45:01.834Z,107.81
2023-04-12T06:45:51.857Z,105.76
2023-04-12T06:46:41.968Z,105.79
2023-04-12T06:47:32.165Z,106.70
2023-04-12T06:48:22.018Z,104.45
2023-04-12T06:49:12.044Z,107.89
2023-04-12T06:50:02.113Z,102.99
2023-04-12T06:50:52.178Z,99.53
2023-04-12T06:51:42.267Z,101.35
2023-04-12T06:52:32.301Z,102.87
2023-04-12T06:53:22.349Z,102.89
2023-04-12T06:54:12.392Z,101.18
2023-04-12T06:55:02.465Z,103.77
2023-04-12T06:55:52.534Z,105.99
2023-04-12T06:56:42.616Z,104.02
2023-04-12T06:57:32.670Z,100.39
2023-04-12T06:58:22.718Z,107.38
2023-04-12T06:59:12.747Z,105.84
2023-04-12T07:00:03.047Z,105.82
2023-04-12T07:00:53.133Z,107.06
2023-04-12T07:01:43.611Z,104.59
2023-04-12T07:02:33.434Z,106.78
2023-04-12T07:03:23.410Z,109.55
2023-04-12T07:04:13.752Z,105.35
2023-04-12T07:05:03.341Z,103.51
2023-04-12T07:05:53.374Z,104.79
2023-04-12T07:06:43.452Z,106.69
2023-04-12T07:07:33.503Z,110.73
2023-04-12T07:08:23.547Z,98.96
2023-04-12T07:09:13.586Z,106.89
2023-04-12T07:10:03.629Z,104.14
2023-04-12T07:10:53.699Z,104.82
2023-04-12T07:11:43.821Z,100.16
2023-04-12T07:12:33.845Z,104.78
2023-04-12T07:13:23.898Z,104.70
2023-04-12T07:14:13.904Z,105.93
2023-04-12T07:15:03.991Z,109.26
2023-04-12T07:15:54.053Z,107.48
2023-04-12T07:16:44.133Z,105.23
2023-04-12T07:17:34.161Z,100.34
2023-04-12T07:18:24.175Z,102.16
2023-04-12T07:19:14.313Z,108.14
2023-04-12T07:20:04.255Z,105.48
2023-04-12T07:20:54.287Z,102.86
2023-04-12T07:21:44.368Z,107.40
2023-04-12T07:22:34.440Z,105.22
2023-04-12T07:23:24.452Z,108.89
2023-04-12T07:24:14.485Z,99.40
2023-04-12T07:25:04.677Z,100.81
2023-04-12T07:25:54.606Z,97.83
2023-04-12T07:26:44.685Z,105.25
2023-04-12T07:27:34.733Z,104.03
2023-04-12T07:28:24.767Z,105.20
2023-04-12T07:29:14.794Z,105.06
2023-04-12T07:30:04.873Z,102.26
2023-04-12T07:30:54.937Z,102.99
2023-04-12T07:31:45.016Z,99.36
2023-04-12T07:32:35.127Z,102.70
2023-04-12T07:33:25.508Z,95.96
2023-04-12T07:34:15.641Z,97.87
2023-04-12T07:35:05.516Z,92.68
2023-04-12T07:35:55.557Z,97.19
2023-04-12T07:36:45.613Z,98.39
2023-04-12T07:37:35.648Z,95.40
2023-04-12T07:38:25.691Z,102.77
2023-04-12T07:39:15.775Z,95.30
2023-04-12T07:40:05.882Z,97.83
2023-04-12T07:40:55.879Z,98.42
2023-04-12T07:41:45.943Z,101.12
2023-04-12T07:42:36.025Z,96.62
2023-04-12T07:43:26.048Z,103.08
2023-04-12T07:44:16.068Z,96.58
2023-04-12T07:45:06.108Z,99.17
2023-04-12T07:45:56.201Z,102.65
2023-04-12T07:46:46.291Z,102.72
2023-04-12T07:47:36.363Z,97.41
2023-04-12T07:48:26.395Z,99.31
2023-04-12T07:49:16.434Z,93.45
2023-04-12T07:50:06.476Z,98.05
2023-04-12T07:50:56.536Z,100.04
2023-04-12T07:51:46.588Z,98.41
2023-04-12T07:52:36.633Z,97.32
2023-04-12T07:53:26.793Z,96.88
2023-04-12T07:54:16.707Z,95.43
2023-04-12T07:55:06.749Z,97.25
2023-04-12T07:55:56.818Z,99.30
2023-04-12T07:56:46.862Z,98.16
2023-04-12T07:57:36.894Z,101.18
2023-04-12T07:58:26.949Z,97.62
2023-04-12T07:59:16.984Z,99.91
2023-04-12T08:00:07.072Z,96.23
2023-04-12T08:00:59.126Z,99.63
2023-04-12T08:01:47.203Z,99.66
2023-04-12T08:02:37.404Z,96.09
2023-04-12T08:03:27.361Z,98.13
2023-04-12T08:04:17.413Z,99.66
2023-04-12T08:05:07.339Z,102.31
2023-04-12T08:05:57.442Z,99.25
2023-04-12T08:06:47.472Z,99.16
2023-04-12T08:07:37.535Z,101.24
2023-04-12T08:08:27.557Z,99.14
2023-04-12T08:09:17.601Z,98.07
2023-04-12T08:10:07.685Z,95.95
2023-04-12T08:10:57.743Z,92.50
2023-04-12T08:11:47.994Z,92.49
2023-04-12T08:12:38.038Z,91.64
2023-04-12T08:13:28.074Z,94.89
2023-04-12T08:14:18.114Z,93.86
2023-04-12T08:15:08.194Z,101.91
2023-04-12T08:15:58.250Z,92.12
2023-04-12T08:16:48.281Z,96.71
2023-04-12T08:17:38.384Z,92.65
2023-04-12T08:18:28.391Z,96.44
2023-04-12T08:19:18.423Z,86.19
2023-04-12T08:20:08.497Z,89.58
2023-04-12T08:20:58.819Z,90.62
2023-04-12T08:21:48.895Z,90.90
2023-04-12T08:22:38.962Z,94.14
2023-04-12T08:23:29.008Z,90.24
2023-04-12T08:24:19.008Z,96.02
2023-04-12T08:25:09.048Z,88.44
2023-04-12T08:25:59.080Z,94.11
2023-04-12T08:26:49.159Z,95.21
2023-04-12T08:27:39.219Z,91.39
2023-04-12T08:28:29.258Z,93.42
2023-04-12T08:29:19.294Z,89.28
2023-04-12T08:30:09.365Z,96.35
2023-04-12T08:30:59.671Z,91.25
2023-04-12T08:31:49.514Z,101.06
2023-04-12T08:32:39.583Z,100.43
2023-04-12T08:33:29.591Z,97.86
2023-04-12T08:34:19.627Z,96.81
2023-04-12T08:35:09.718Z,92.15
2023-04-12T08:35:59.756Z,94.33
2023-04-12T08:36:50.053Z,96.00
2023-04-12T08:37:40.133Z,90.20
2023-04-12T08:39:21.197Z,92.37
2023-04-12T08:40:10.292Z,93.02
2023-04-12T08:41:00.343Z,94.75
2023-04-12T08:41:50.428Z,92.97
2023-04-12T08:42:40.487Z,93.34
2023-04-12T08:43:30.524Z,94.69
2023-04-12T08:44:20.553Z,94.21
2023-04-12T08:45:10.762Z,97.24
2023-04-12T08:46:00.830Z,95.87
2023-04-12T08:46:53.408Z,97.15
2023-04-12T08:47:40.902Z,101.94
2023-04-12T08:48:30.919Z,98.60
2023-04-12T08:49:20.984Z,99.56
2023-04-12T08:50:11.033Z,102.24
2023-04-12T08:51:01.095Z,97.09
2023-04-12T08:51:51.122Z,98.73
2023-04-12T08:52:41.188Z,99.32
2023-04-12T08:53:31.243Z,98.75
2023-04-12T08:54:21.289Z,102.10
2023-04-12T08:55:11.344Z,96.57
2023-04-12T08:56:01.368Z,97.84
2023-04-12T08:56:51.445Z,101.79
2023-04-12T08:57:41.503Z,98.09
2023-04-12T08:58:31.534Z,102.11
2023-04-12T08:59:21.567Z,94.90
2023-04-12T09:00:11.662Z,98.78
2023-04-12T09:01:01.679Z,99.99
2023-04-12T09:01:51.760Z,99.35
2023-04-12T09:02:41.976Z,93.92
2023-04-12T09:03:33.646Z,96.77
2023-04-12T09:04:21.967Z,101.96
2023-04-12T09:05:12.052Z,97.24
2023-04-12T09:06:01.991Z,96.80
2023-04-12T09:06:52.046Z,95.59
2023-04-12T09:07:42.102Z,93.01
2023-04-12T09:08:32.345Z,98.15
2023-04-12T09:09:22.389Z,97.04
2023-04-12T09:10:12.488Z,98.18
2023-04-12T09:11:02.479Z,98.57
2023-04-12T09:11:52.515Z,99.45
2023-04-12T09:12:42.550Z,99.97
2023-04-12T09:13:32.589Z,100.22
2023-04-12T09:14:22.655Z,102.42
2023-04-12T09:15:13.090Z,100.67
2023-04-12T09:16:02.797Z,103.23
2023-04-12T09:16:52.950Z,99.58
2023-04-12T09:17:43.124Z,100.12
2023-04-12T09:18:32.980Z,101.20
2023-04-12T09:19:22.999Z,100.27
2023-04-12T09:20:13.071Z,96.03
2023-04-12T09:21:03.102Z,102.05
2023-04-12T09:21:53.352Z,101.97
2023-04-12T09:22:43.428Z,100.93
2023-04-12T09:23:33.473Z,102.59
2023-04-12T09:24:23.525Z,100.30
2023-04-12T09:25:13.562Z,104.05
2023-04-12T09:26:03.654Z,104.78
2023-04-12T09:26:53.714Z,105.59
2023-04-12T09:27:43.745Z,108.03
2023-04-12T09:28:33.803Z,102.90
2023-04-12T09:29:23.863Z,103.91
2023-04-12T09:30:13.940Z,108.15
2023-04-12T09:31:04.095Z,104.84
2023-04-12T09:31:54.067Z,105.38
2023-04-12T09:32:44.114Z,103.10
2023-04-12T09:33:34.154Z,103.69
2023-04-12T09:34:25.736Z,103.52
2023-04-12T09:35:14.234Z,107.37
2023-04-12T09:36:04.260Z,106.40
2023-04-12T09:36:54.438Z,105.93
2023-04-12T09:37:44.514Z,100.19
2023-04-12T09:38:34.555Z,105.59
2023-04-12T09:39:24.609Z,107.29
2023-04-12T09:40:14.631Z,106.87
2023-04-12T09:41:04.652Z,108.87
2023-04-12T09:41:54.781Z,108.22
2023-04-12T09:42:44.795Z,107.93
2023-04-12T09:43:34.854Z,108.18
2023-04-12T09:44:24.863Z,105.75
2023-04-12T09:45:14.912Z,105.01
2023-04-12T09:46:04.984Z,106.91
2023-04-12T09:46:55.085Z,108.66
2023-04-12T09:47:45.107Z,103.50
2023-04-12T09:48:35.133Z,112.11
2023-04-12T09:49:25.154Z,109.44
2023-04-12T09:50:15.228Z,107.43
2023-04-12T09:51:05.275Z,105.74
2023-04-12T09:51:56.991Z,107.09
2023-04-12T09:52:45.405Z,103.47
2023-04-12T09:53:35.441Z,100.75
2023-04-12T09:54:25.473Z,101.02
2023-04-12T09:55:15.549Z,104.27
2023-04-12T09:56:05.599Z,107.48
2023-04-12T09:56:55.669Z,108.39
2023-04-12T09:57:45.765Z,108.37
2023-04-12T09:58:35.903Z,105.89
2023-04-12T09:59:25.948Z,106.13
2023-04-12T10:00:16.037Z,109.78
2023-04-12T10:01:06.092Z,109.09
2023-04-12T10:01:56.344Z,104.21
2023-04-12T10:02:47.030Z,104.67
2023-04-12T10:03:36.370Z,108.92
2023-04-12T10:04:26.528Z,101.79
2023-04-12T10:05:16.546Z,108.03
2023-04-12T10:06:06.407Z,107.96
2023-04-12T10:06:56.499Z,107.40
2023-04-12T10:07:46.532Z,105.82
2023-04-12T10:08:36.564Z,106.08
2023-04-12T10:09:26.630Z,109.94
2023-04-12T10:10:16.844Z,109.96
2023-04-12T10:11:06.763Z,102.43
2023-04-12T10:11:56.803Z,103.97
2023-04-12T10:12:47.080Z,107.23
2023-04-12T10:13:36.904Z,107.25
2023-04-12T10:14:26.904Z,107.38
2023-04-12T10:15:16.975Z,104.11
2023-04-12T10:16:07.155Z,107.18
2023-04-12T10:16:57.101Z,103.07
2023-04-12T10:17:47.193Z,105.89
2023-04-12T10:18:37.175Z,107.23
2023-04-12T10:19:27.221Z,100.02
2023-04-12T10:20:17.345Z,102.14
2023-04-12T10:21:07.285Z,100.28
2023-04-12T10:21:57.360Z,103.81
2023-04-12T10:22:47.485Z,102.99
2023-04-12T10:23:37.513Z,103.32
2023-04-12T10:24:27.622Z,100.43
2023-04-12T10:25:17.692Z,101.49
2023-04-12T10:26:07.746Z,100.30
2023-04-12T10:26:57.827Z,100.19
2023-04-12T10:27:47.907Z,103.06
2023-04-12T10:28:37.954Z,103.34